sensor_id;sensor_type;location;lat;lon;timestamp;temperature;humidity
80412;SHT30;69749;42.684;23.360;2023-05-17T00:00:36;16.10;71.68
80412;SHT30;69749;42.684;23.360;2023-05-17T00:03:02;15.96;72.03
80412;SHT30;69749;42.684;23.360;2023-05-17T00:05:27;15.96;71.95
80412;SHT30;69749;42.684;23.360;2023-05-17T00:07:53;15.89;72.42
80412;SHT30;69749;42.684;23.360;2023-05-17T00:10:18;15.93;71.91
80412;SHT30;69749;42.684;23.360;2023-05-17T00:12:43;15.78;72.38
80412;SHT30;69749;42.684;23.360;2023-05-17T00:15:09;15.75;72.59
80412;SHT30;69749;42.684;23.360;2023-05-17T00:17:34;15.90;71.95
80412;SHT30;69749;42.684;23.360;2023-05-17T00:20:03;15.92;71.87
80412;SHT30;69749;42.684;23.360;2023-05-17T00:22:28;15.92;71.91
80412;SHT30;69749;42.684;23.360;2023-05-17T00:24:54;15.94;72.12
80412;SHT30;69749;42.684;23.360;2023-05-17T00:27:19;16.03;72.28
80412;SHT30;69749;42.684;23.360;2023-05-17T00:29:45;16.09;71.88
80412;SHT30;69749;42.684;23.360;2023-05-17T00:32:10;16.06;71.49
80412;SHT30;69749;42.684;23.360;2023-05-17T00:34:35;16.07;71.99
80412;SHT30;69749;42.684;23.360;2023-05-17T00:37:01;16.00;72.22
80412;SHT30;69749;42.684;23.360;2023-05-17T00:39:26;15.97;72.63
80412;SHT30;69749;42.684;23.360;2023-05-17T00:41:52;16.09;72.36
80412;SHT30;69749;42.684;23.360;2023-05-17T00:44:17;16.02;72.64
80412;SHT30;69749;42.684;23.360;2023-05-17T00:46:42;15.96;72.65
80412;SHT30;69749;42.684;23.360;2023-05-17T00:49:08;15.92;72.65
80412;SHT30;69749;42.684;23.360;2023-05-17T00:51:34;15.90;72.39
80412;SHT30;69749;42.684;23.360;2023-05-17T00:54:00;15.94;72.48
80412;SHT30;69749;42.684;23.360;2023-05-17T00:56:26;15.92;72.54
80412;SHT30;69749;42.684;23.360;2023-05-17T00:58:52;15.90;72.32
80412;SHT30;69749;42.684;23.360;2023-05-17T01:01:18;15.85;73.08
80412;SHT30;69749;42.684;23.360;2023-05-17T01:03:44;15.83;73.03
80412;SHT30;69749;42.684;23.360;2023-05-17T01:06:10;15.79;72.64
80412;SHT30;69749;42.684;23.360;2023-05-17T01:08:35;15.78;72.50
80412;SHT30;69749;42.684;23.360;2023-05-17T01:11:17;15.67;72.69
80412;SHT30;69749;42.684;23.360;2023-05-17T01:14:05;15.46;73.35
80412;SHT30;69749;42.684;23.360;2023-05-17T01:16:39;15.39;73.54
80412;SHT30;69749;42.684;23.360;2023-05-17T01:27:42;15.39;72.95
80412;SHT30;69749;42.684;23.360;2023-05-17T01:30:12;15.45;72.88
80412;SHT30;69749;42.684;23.360;2023-05-17T01:32:40;15.42;72.80
80412;SHT30;69749;42.684;23.360;2023-05-17T01:35:06;15.42;73.45
80412;SHT30;69749;42.684;23.360;2023-05-17T01:37:32;15.46;73.60
80412;SHT30;69749;42.684;23.360;2023-05-17T01:39:57;15.39;73.58
80412;SHT30;69749;42.684;23.360;2023-05-17T01:42:28;15.39;73.51
80412;SHT30;69749;42.684;23.360;2023-05-17T01:47:50;15.32;72.93
80412;SHT30;69749;42.684;23.360;2023-05-17T01:50:22;15.31;72.57
80412;SHT30;69749;42.684;23.360;2023-05-17T01:52:52;15.30;72.42
80412;SHT30;69749;42.684;23.360;2023-05-17T01:55:29;15.34;72.40
80412;SHT30;69749;42.684;23.360;2023-05-17T01:57:55;15.35;71.98
80412;SHT30;69749;42.684;23.360;2023-05-17T02:00:23;15.34;71.69
80412;SHT30;69749;42.684;23.360;2023-05-17T02:02:49;15.36;71.22
80412;SHT30;69749;42.684;23.360;2023-05-17T02:05:15;15.36;71.24
80412;SHT30;69749;42.684;23.360;2023-05-17T02:07:40;15.41;72.63
80412;SHT30;69749;42.684;23.360;2023-05-17T02:10:06;15.35;73.02
80412;SHT30;69749;42.684;23.360;2023-05-17T02:12:31;15.25;73.24
80412;SHT30;69749;42.684;23.360;2023-05-17T02:14:57;15.25;73.51
80412;SHT30;69749;42.684;23.360;2023-05-17T02:17:22;15.24;73.44
80412;SHT30;69749;42.684;23.360;2023-05-17T02:19:48;15.20;73.39
80412;SHT30;69749;42.684;23.360;2023-05-17T02:22:13;15.14;73.63
80412;SHT30;69749;42.684;23.360;2023-05-17T02:24:39;15.14;73.65
80412;SHT30;69749;42.684;23.360;2023-05-17T02:27:05;15.07;73.86
80412;SHT30;69749;42.684;23.360;2023-05-17T02:29:30;14.91;72.26
80412;SHT30;69749;42.684;23.360;2023-05-17T02:31:56;14.87;72.78
80412;SHT30;69749;42.684;23.360;2023-05-17T02:34:21;14.93;71.86
80412;SHT30;69749;42.684;23.360;2023-05-17T02:36:47;14.97;72.96
80412;SHT30;69749;42.684;23.360;2023-05-17T02:39:12;14.93;72.29
80412;SHT30;69749;42.684;23.360;2023-05-17T02:41:38;14.95;72.00
80412;SHT30;69749;42.684;23.360;2023-05-17T02:44:03;15.00;71.63
80412;SHT30;69749;42.684;23.360;2023-05-17T02:46:29;15.05;72.13
80412;SHT30;69749;42.684;23.360;2023-05-17T02:48:55;15.00;71.53
80412;SHT30;69749;42.684;23.360;2023-05-17T02:51:20;14.72;72.34
80412;SHT30;69749;42.684;23.360;2023-05-17T02:53:45;14.63;72.82
80412;SHT30;69749;42.684;23.360;2023-05-17T02:56:11;14.66;72.77
80412;SHT30;69749;42.684;23.360;2023-05-17T02:58:36;14.55;73.13
80412;SHT30;69749;42.684;23.360;2023-05-17T03:01:02;14.37;73.68
80412;SHT30;69749;42.684;23.360;2023-05-17T03:03:27;14.42;73.82
80412;SHT30;69749;42.684;23.360;2023-05-17T03:05:53;14.42;73.69
80412;SHT30;69749;42.684;23.360;2023-05-17T03:08:18;14.32;74.07
80412;SHT30;69749;42.684;23.360;2023-05-17T03:10:43;14.39;73.93
80412;SHT30;69749;42.684;23.360;2023-05-17T03:13:09;14.43;73.94
80412;SHT30;69749;42.684;23.360;2023-05-17T03:15:34;14.47;73.74
80412;SHT30;69749;42.684;23.360;2023-05-17T03:18:00;14.56;73.60
80412;SHT30;69749;42.684;23.360;2023-05-17T03:20:25;14.46;73.77
80412;SHT30;69749;42.684;23.360;2023-05-17T03:22:51;14.47;73.82
80412;SHT30;69749;42.684;23.360;2023-05-17T03:25:16;14.55;73.62
80412;SHT30;69749;42.684;23.360;2023-05-17T03:27:42;14.60;73.50
80412;SHT30;69749;42.684;23.360;2023-05-17T03:30:07;14.60;73.48
80412;SHT30;69749;42.684;23.360;2023-05-17T03:32:33;14.56;73.55
80412;SHT30;69749;42.684;23.360;2023-05-17T03:34:58;14.53;73.88
80412;SHT30;69749;42.684;23.360;2023-05-17T03:37:24;14.29;74.87
80412;SHT30;69749;42.684;23.360;2023-05-17T03:39:49;14.26;75.01
80412;SHT30;69749;42.684;23.360;2023-05-17T03:42:15;14.15;75.46
80412;SHT30;69749;42.684;23.360;2023-05-17T03:44:40;14.19;75.20
80412;SHT30;69749;42.684;23.360;2023-05-17T03:47:06;14.21;75.21
80412;SHT30;69749;42.684;23.360;2023-05-17T03:49:32;14.30;74.87
80412;SHT30;69749;42.684;23.360;2023-05-17T03:51:57;14.14;75.52
80412;SHT30;69749;42.684;23.360;2023-05-17T03:54:23;14.32;75.16
80412;SHT30;69749;42.684;23.360;2023-05-17T03:56:48;14.18;75.63
80412;SHT30;69749;42.684;23.360;2023-05-17T03:59:14;14.14;75.83
80412;SHT30;69749;42.684;23.360;2023-05-17T04:01:41;13.94;76.79
80412;SHT30;69749;42.684;23.360;2023-05-17T04:04:06;14.04;76.63
80412;SHT30;69749;42.684;23.360;2023-05-17T04:06:32;14.24;75.97
80412;SHT30;69749;42.684;23.360;2023-05-17T04:08:57;14.24;76.14
80412;SHT30;69749;42.684;23.360;2023-05-17T04:11:24;14.24;76.12
80412;SHT30;69749;42.684;23.360;2023-05-17T04:13:51;14.29;76.00
80412;SHT30;69749;42.684;23.360;2023-05-17T04:16:17;14.33;76.01
80412;SHT30;69749;42.684;23.360;2023-05-17T04:18:42;14.53;75.55
80412;SHT30;69749;42.684;23.360;2023-05-17T04:21:09;14.57;75.24
80412;SHT30;69749;42.684;23.360;2023-05-17T04:23:35;14.55;75.39
80412;SHT30;69749;42.684;23.360;2023-05-17T04:26:00;14.57;75.28
80412;SHT30;69749;42.684;23.360;2023-05-17T04:28:26;14.66;75.15
80412;SHT30;69749;42.684;23.360;2023-05-17T04:30:51;14.63;75.23
80412;SHT30;69749;42.684;23.360;2023-05-17T04:33:17;14.62;75.43
80412;SHT30;69749;42.684;23.360;2023-05-17T04:35:43;14.72;75.24
80412;SHT30;69749;42.684;23.360;2023-05-17T04:38:08;14.80;74.66
80412;SHT30;69749;42.684;23.360;2023-05-17T04:40:35;14.86;74.49
80412;SHT30;69749;42.684;23.360;2023-05-17T04:43:00;14.91;74.18
80412;SHT30;69749;42.684;23.360;2023-05-17T04:45:26;15.12;73.84
80412;SHT30;69749;42.684;23.360;2023-05-17T04:47:51;15.27;73.30
80412;SHT30;69749;42.684;23.360;2023-05-17T04:50:17;15.39;72.66
80412;SHT30;69749;42.684;23.360;2023-05-17T04:52:44;15.38;72.55
80412;SHT30;69749;42.684;23.360;2023-05-17T04:55:09;15.61;71.81
80412;SHT30;69749;42.684;23.360;2023-05-17T04:57:35;15.63;71.33
80412;SHT30;69749;42.684;23.360;2023-05-17T05:00:02;15.69;71.36
80412;SHT30;69749;42.684;23.360;2023-05-17T05:02:32;15.89;71.15
80412;SHT30;69749;42.684;23.360;2023-05-17T05:04:57;16.10;70.29
80412;SHT30;69749;42.684;23.360;2023-05-17T05:07:23;16.00;70.34
80412;SHT30;69749;42.684;23.360;2023-05-17T05:09:48;16.04;70.22
80412;SHT30;69749;42.684;23.360;2023-05-17T05:12:14;16.18;69.10
80412;SHT30;69749;42.684;23.360;2023-05-17T05:14:39;16.24;68.75
80412;SHT30;69749;42.684;23.360;2023-05-17T05:17:05;16.31;68.49
80412;SHT30;69749;42.684;23.360;2023-05-17T05:19:30;16.23;68.84
80412;SHT30;69749;42.684;23.360;2023-05-17T05:21:55;16.30;68.83
80412;SHT30;69749;42.684;23.360;2023-05-17T05:24:21;16.54;68.32
80412;SHT30;69749;42.684;23.360;2023-05-17T05:26:46;16.64;67.69
80412;SHT30;69749;42.684;23.360;2023-05-17T05:29:12;16.71;67.66
80412;SHT30;69749;42.684;23.360;2023-05-17T05:31:37;17.09;66.95
80412;SHT30;69749;42.684;23.360;2023-05-17T05:34:03;17.37;65.92
80412;SHT30;69749;42.684;23.360;2023-05-17T05:36:28;17.75;65.01
80412;SHT30;69749;42.684;23.360;2023-05-17T05:38:53;18.08;63.76
80412;SHT30;69749;42.684;23.360;2023-05-17T05:41:19;18.06;63.42
80412;SHT30;69749;42.684;23.360;2023-05-17T05:43:45;18.32;62.54
80412;SHT30;69749;42.684;23.360;2023-05-17T05:46:10;18.30;61.66
80412;SHT30;69749;42.684;23.360;2023-05-17T05:48:35;18.55;61.27
80412;SHT30;69749;42.684;23.360;2023-05-17T05:51:03;18.80;60.05
80412;SHT30;69749;42.684;23.360;2023-05-17T05:53:29;18.97;59.56
80412;SHT30;69749;42.684;23.360;2023-05-17T05:55:54;19.03;59.56
80412;SHT30;69749;42.684;23.360;2023-05-17T05:58:20;19.26;58.32
80412;SHT30;69749;42.684;23.360;2023-05-17T06:00:46;19.34;57.61
80412;SHT30;69749;42.684;23.360;2023-05-17T06:03:11;19.65;56.53
80412;SHT30;69749;42.684;23.360;2023-05-17T06:05:37;19.39;56.99
80412;SHT30;69749;42.684;23.360;2023-05-17T06:08:04;19.75;56.75
80412;SHT30;69749;42.684;23.360;2023-05-17T06:10:31;19.63;56.16
80412;SHT30;69749;42.684;23.360;2023-05-17T06:12:56;18.86;57.47
80412;SHT30;69749;42.684;23.360;2023-05-17T06:15:26;19.03;57.43
80412;SHT30;69749;42.684;23.360;2023-05-17T06:17:51;19.61;57.86
80412;SHT30;69749;42.684;23.360;2023-05-17T06:20:17;19.76;56.59
80412;SHT30;69749;42.684;23.360;2023-05-17T06:22:43;20.03;54.41
80412;SHT30;69749;42.684;23.360;2023-05-17T06:25:08;19.94;55.42
80412;SHT30;69749;42.684;23.360;2023-05-17T06:27:37;20.33;54.76
80412;SHT30;69749;42.684;23.360;2023-05-17T06:30:03;20.75;53.35
80412;SHT30;69749;42.684;23.360;2023-05-17T06:32:29;20.85;52.68
80412;SHT30;69749;42.684;23.360;2023-05-17T06:34:54;20.96;52.90
80412;SHT30;69749;42.684;23.360;2023-05-17T06:37:23;20.73;53.46
80412;SHT30;69749;42.684;23.360;2023-05-17T06:39:52;20.59;53.82
80412;SHT30;69749;42.684;23.360;2023-05-17T06:42:17;20.34;54.47
80412;SHT30;69749;42.684;23.360;2023-05-17T06:44:43;20.59;54.72
80412;SHT30;69749;42.684;23.360;2023-05-17T06:47:08;20.62;54.85
80412;SHT30;69749;42.684;23.360;2023-05-17T06:59:54;22.29;50.20
80412;SHT30;69749;42.684;23.360;2023-05-17T07:02:19;21.71;51.94
80412;SHT30;69749;42.684;23.360;2023-05-17T07:04:45;22.61;50.87
80412;SHT30;69749;42.684;23.360;2023-05-17T07:07:10;23.39;48.40
80412;SHT30;69749;42.684;23.360;2023-05-17T07:09:36;23.15;48.13
80412;SHT30;69749;42.684;23.360;2023-05-17T07:12:03;23.21;48.28
80412;SHT30;69749;42.684;23.360;2023-05-17T07:14:29;23.06;49.13
80412;SHT30;69749;42.684;23.360;2023-05-17T07:16:54;23.73;47.64
80412;SHT30;69749;42.684;23.360;2023-05-17T07:19:20;23.00;49.11
80412;SHT30;69749;42.684;23.360;2023-05-17T07:21:45;22.38;50.35
80412;SHT30;69749;42.684;23.360;2023-05-17T07:24:11;21.81;51.36
80412;SHT30;69749;42.684;23.360;2023-05-17T07:26:36;21.43;52.79
80412;SHT30;69749;42.684;23.360;2023-05-17T07:29:01;21.26;53.27
80412;SHT30;69749;42.684;23.360;2023-05-17T07:31:27;21.13;53.82
80412;SHT30;69749;42.684;23.360;2023-05-17T07:33:52;20.85;54.87
80412;SHT30;69749;42.684;23.360;2023-05-17T07:36:17;20.76;55.27
80412;SHT30;69749;42.684;23.360;2023-05-17T07:38:43;20.07;57.21
80412;SHT30;69749;42.684;23.360;2023-05-17T07:41:09;20.13;57.54
80412;SHT30;69749;42.684;23.360;2023-05-17T07:43:37;20.04;58.50
80412;SHT30;69749;42.684;23.360;2023-05-17T07:46:03;19.80;59.65
80412;SHT30;69749;42.684;23.360;2023-05-17T07:48:29;19.89;59.06
80412;SHT30;69749;42.684;23.360;2023-05-17T07:50:54;19.96;58.59
80412;SHT30;69749;42.684;23.360;2023-05-17T07:53:20;20.06;57.79
80412;SHT30;69749;42.684;23.360;2023-05-17T07:55:45;19.96;58.35
80412;SHT30;69749;42.684;23.360;2023-05-17T07:58:11;20.07;58.20
80412;SHT30;69749;42.684;23.360;2023-05-17T08:00:37;20.20;58.38
80412;SHT30;69749;42.684;23.360;2023-05-17T08:03:14;20.33;57.58
80412;SHT30;69749;42.684;23.360;2023-05-17T08:05:40;20.28;57.51
80412;SHT30;69749;42.684;23.360;2023-05-17T08:08:05;20.43;57.19
80412;SHT30;69749;42.684;23.360;2023-05-17T08:10:31;20.24;57.81
80412;SHT30;69749;42.684;23.360;2023-05-17T08:12:57;20.25;57.73
80412;SHT30;69749;42.684;23.360;2023-05-17T08:15:23;20.37;58.12
80412;SHT30;69749;42.684;23.360;2023-05-17T08:17:48;20.27;58.94
80412;SHT30;69749;42.684;23.360;2023-05-17T08:20:14;20.65;57.46
80412;SHT30;69749;42.684;23.360;2023-05-17T08:22:40;20.81;55.96
80412;SHT30;69749;42.684;23.360;2023-05-17T08:25:05;21.19;55.40
80412;SHT30;69749;42.684;23.360;2023-05-17T08:27:31;21.50;54.81
80412;SHT30;69749;42.684;23.360;2023-05-17T08:29:57;21.80;54.07
80412;SHT30;69749;42.684;23.360;2023-05-17T08:32:23;21.85;54.03
80412;SHT30;69749;42.684;23.360;2023-05-17T08:34:49;21.92;53.61
80412;SHT30;69749;42.684;23.360;2023-05-17T08:37:15;22.11;53.12
80412;SHT30;69749;42.684;23.360;2023-05-17T08:39:40;22.16;52.64
80412;SHT30;69749;42.684;23.360;2023-05-17T08:42:07;22.19;53.01
80412;SHT30;69749;42.684;23.360;2023-05-17T08:44:32;21.71;54.46
80412;SHT30;69749;42.684;23.360;2023-05-17T08:46:58;21.36;55.48
80412;SHT30;69749;42.684;23.360;2023-05-17T08:49:26;21.39;55.35
80412;SHT30;69749;42.684;23.360;2023-05-17T08:51:53;21.19;55.19
80412;SHT30;69749;42.684;23.360;2023-05-17T08:54:19;21.14;55.44
80412;SHT30;69749;42.684;23.360;2023-05-17T08:56:46;21.18;55.99
80412;SHT30;69749;42.684;23.360;2023-05-17T08:59:16;20.88;56.70
80412;SHT30;69749;42.684;23.360;2023-05-17T09:01:43;20.96;57.56
80412;SHT30;69749;42.684;23.360;2023-05-17T09:04:09;21.10;57.01
80412;SHT30;69749;42.684;23.360;2023-05-17T09:06:35;20.52;57.02
80412;SHT30;69749;42.684;23.360;2023-05-17T09:09:01;20.59;57.50
80412;SHT30;69749;42.684;23.360;2023-05-17T09:11:30;20.86;56.93
80412;SHT30;69749;42.684;23.360;2023-05-17T09:14:00;20.72;56.66
80412;SHT30;69749;42.684;23.360;2023-05-17T09:16:33;20.96;56.90
80412;SHT30;69749;42.684;23.360;2023-05-17T09:19:00;21.18;57.14
80412;SHT30;69749;42.684;23.360;2023-05-17T09:21:27;21.31;55.83
80412;SHT30;69749;42.684;23.360;2023-05-17T09:23:54;21.58;55.25
80412;SHT30;69749;42.684;23.360;2023-05-17T09:26:20;21.80;54.71
80412;SHT30;69749;42.684;23.360;2023-05-17T09:28:46;21.87;53.96
80412;SHT30;69749;42.684;23.360;2023-05-17T09:31:14;21.40;55.03
80412;SHT30;69749;42.684;23.360;2023-05-17T09:33:45;21.55;55.45
80412;SHT30;69749;42.684;23.360;2023-05-17T09:36:21;21.67;54.20
80412;SHT30;69749;42.684;23.360;2023-05-17T09:38:57;21.77;54.15
80412;SHT30;69749;42.684;23.360;2023-05-17T09:41:27;21.82;53.93
80412;SHT30;69749;42.684;23.360;2023-05-17T09:44:00;21.55;54.05
80412;SHT30;69749;42.684;23.360;2023-05-17T09:46:26;21.04;55.02
80412;SHT30;69749;42.684;23.360;2023-05-17T09:48:53;20.76;56.49
80412;SHT30;69749;42.684;23.360;2023-05-17T09:53:58;21.18;56.06
80412;SHT30;69749;42.684;23.360;2023-05-17T09:56:29;21.19;55.77
80412;SHT30;69749;42.684;23.360;2023-05-17T09:58:56;21.19;56.36
80412;SHT30;69749;42.684;23.360;2023-05-17T10:01:25;20.35;58.31
80412;SHT30;69749;42.684;23.360;2023-05-17T10:03:52;20.68;57.48
80412;SHT30;69749;42.684;23.360;2023-05-17T10:06:20;20.75;56.40
80412;SHT30;69749;42.684;23.360;2023-05-17T10:08:51;20.62;56.47
80412;SHT30;69749;42.684;23.360;2023-05-17T10:11:26;20.61;57.18
80412;SHT30;69749;42.684;23.360;2023-05-17T10:14:27;20.30;56.90
80412;SHT30;69749;42.684;23.360;2023-05-17T10:16:53;20.24;57.54
80412;SHT30;69749;42.684;23.360;2023-05-17T10:19:19;19.82;58.07
80412;SHT30;69749;42.684;23.360;2023-05-17T10:21:47;19.59;59.26
80412;SHT30;69749;42.684;23.360;2023-05-17T10:24:13;19.73;58.85
80412;SHT30;69749;42.684;23.360;2023-05-17T10:26:40;19.73;59.26
80412;SHT30;69749;42.684;23.360;2023-05-17T10:29:06;19.46;59.58
80412;SHT30;69749;42.684;23.360;2023-05-17T10:31:32;19.55;59.29
80412;SHT30;69749;42.684;23.360;2023-05-17T10:34:02;19.73;58.97
80412;SHT30;69749;42.684;23.360;2023-05-17T10:36:29;19.66;59.17
80412;SHT30;69749;42.684;23.360;2023-05-17T10:38:57;19.56;59.75
80412;SHT30;69749;42.684;23.360;2023-05-17T10:41:27;19.65;60.24
80412;SHT30;69749;42.684;23.360;2023-05-17T10:43:55;19.80;59.70
80412;SHT30;69749;42.684;23.360;2023-05-17T10:46:22;19.82;59.29
80412;SHT30;69749;42.684;23.360;2023-05-17T10:48:52;19.63;59.80
80412;SHT30;69749;42.684;23.360;2023-05-17T10:51:23;19.56;59.77
80412;SHT30;69749;42.684;23.360;2023-05-17T10:54:12;19.22;60.33
80412;SHT30;69749;42.684;23.360;2023-05-17T10:56:50;19.41;60.91
80412;SHT30;69749;42.684;23.360;2023-05-17T11:04:26;19.59;59.08
80412;SHT30;69749;42.684;23.360;2023-05-17T11:06:53;19.42;59.51
80412;SHT30;69749;42.684;23.360;2023-05-17T11:09:21;19.69;59.43
80412;SHT30;69749;42.684;23.360;2023-05-17T11:12:36;19.76;58.64
80412;SHT30;69749;42.684;23.360;2023-05-17T11:15:09;19.76;58.56
80412;SHT30;69749;42.684;23.360;2023-05-17T11:25:27;19.10;62.29
80412;SHT30;69749;42.684;23.360;2023-05-17T11:27:54;19.38;61.36
80412;SHT30;69749;42.684;23.360;2023-05-17T11:33:07;19.11;63.04
80412;SHT30;69749;42.684;23.360;2023-05-17T11:35:38;19.15;63.28
80412;SHT30;69749;42.684;23.360;2023-05-17T11:38:19;19.39;62.33
80412;SHT30;69749;42.684;23.360;2023-05-17T11:40:49;19.46;62.40
80412;SHT30;69749;42.684;23.360;2023-05-17T11:43:22;19.54;61.14
80412;SHT30;69749;42.684;23.360;2023-05-17T11:45:53;19.41;61.14
80412;SHT30;69749;42.684;23.360;2023-05-17T11:48:21;19.51;62.05
80412;SHT30;69749;42.684;23.360;2023-05-17T11:50:47;19.62;61.41
80412;SHT30;69749;42.684;23.360;2023-05-17T11:53:14;19.51;60.39
80412;SHT30;69749;42.684;23.360;2023-05-17T11:55:45;19.29;61.31
80412;SHT30;69749;42.684;23.360;2023-05-17T11:58:20;19.19;61.47
80412;SHT30;69749;42.684;23.360;2023-05-17T12:00:55;19.10;60.51
80412;SHT30;69749;42.684;23.360;2023-05-17T12:03:23;19.38;60.03
80412;SHT30;69749;42.684;23.360;2023-05-17T12:05:51;19.21;60.83
80412;SHT30;69749;42.684;23.360;2023-05-17T12:08:18;19.24;61.43
80412;SHT30;69749;42.684;23.360;2023-05-17T12:10:45;19.26;61.02
80412;SHT30;69749;42.684;23.360;2023-05-17T12:13:11;19.41;60.38
80412;SHT30;69749;42.684;23.360;2023-05-17T12:15:37;19.66;59.72
80412;SHT30;69749;42.684;23.360;2023-05-17T12:18:03;19.73;59.96
80412;SHT30;69749;42.684;23.360;2023-05-17T12:20:29;19.45;60.12
80412;SHT30;69749;42.684;23.360;2023-05-17T12:22:57;19.29;60.30
80412;SHT30;69749;42.684;23.360;2023-05-17T12:25:23;19.56;59.18
80412;SHT30;69749;42.684;23.360;2023-05-17T12:28:32;19.51;58.86
80412;SHT30;69749;42.684;23.360;2023-05-17T12:30:58;19.52;59.41
80412;SHT30;69749;42.684;23.360;2023-05-17T12:33:29;19.44;59.78
80412;SHT30;69749;42.684;23.360;2023-05-17T12:35:55;19.25;60.40
80412;SHT30;69749;42.684;23.360;2023-05-17T12:38:21;19.32;60.95
80412;SHT30;69749;42.684;23.360;2023-05-17T12:40:46;18.98;62.81
80412;SHT30;69749;42.684;23.360;2023-05-17T12:43:12;19.03;62.76
80412;SHT30;69749;42.684;23.360;2023-05-17T12:45:40;18.91;62.52
80412;SHT30;69749;42.684;23.360;2023-05-17T12:48:06;19.04;61.98
80412;SHT30;69749;42.684;23.360;2023-05-17T12:50:31;18.74;62.13
80412;SHT30;69749;42.684;23.360;2023-05-17T12:52:57;18.74;62.42
80412;SHT30;69749;42.684;23.360;2023-05-17T12:55:23;19.07;61.55
80412;SHT30;69749;42.684;23.360;2023-05-17T12:57:53;18.90;61.91
80412;SHT30;69749;42.684;23.360;2023-05-17T13:00:19;19.04;61.89
80412;SHT30;69749;42.684;23.360;2023-05-17T13:02:46;19.04;62.26
80412;SHT30;69749;42.684;23.360;2023-05-17T13:05:16;18.88;62.91
80412;SHT30;69749;42.684;23.360;2023-05-17T13:07:44;18.96;62.81
80412;SHT30;69749;42.684;23.360;2023-05-17T13:10:24;19.04;62.04
80412;SHT30;69749;42.684;23.360;2023-05-17T13:12:57;18.88;62.68
80412;SHT30;69749;42.684;23.360;2023-05-17T13:15:30;19.01;62.04
80412;SHT30;69749;42.684;23.360;2023-05-17T13:17:56;19.12;61.45
80412;SHT30;69749;42.684;23.360;2023-05-17T13:20:22;18.76;62.39
80412;SHT30;69749;42.684;23.360;2023-05-17T13:22:48;18.71;62.30
80412;SHT30;69749;42.684;23.360;2023-05-17T13:25:14;18.77;62.22
80412;SHT30;69749;42.684;23.360;2023-05-17T13:27:40;18.74;63.13
80412;SHT30;69749;42.684;23.360;2023-05-17T13:30:10;18.55;63.29
80412;SHT30;69749;42.684;23.360;2023-05-17T13:32:36;18.46;63.67
80412;SHT30;69749;42.684;23.360;2023-05-17T13:35:01;18.56;62.64
80412;SHT30;69749;42.684;23.360;2023-05-17T13:37:27;18.49;62.88
80412;SHT30;69749;42.684;23.360;2023-05-17T13:39:52;18.61;61.95
80412;SHT30;69749;42.684;23.360;2023-05-17T13:42:20;18.32;61.72
80412;SHT30;69749;42.684;23.360;2023-05-17T13:44:46;18.21;62.96
80412;SHT30;69749;42.684;23.360;2023-05-17T13:47:11;18.42;61.89
80412;SHT30;69749;42.684;23.360;2023-05-17T13:49:37;18.53;61.50
80412;SHT30;69749;42.684;23.360;2023-05-17T13:52:02;18.50;60.90
80412;SHT30;69749;42.684;23.360;2023-05-17T13:54:28;18.42;60.57
80412;SHT30;69749;42.684;23.360;2023-05-17T13:56:53;18.46;60.76
80412;SHT30;69749;42.684;23.360;2023-05-17T13:59:19;18.67;60.07
80412;SHT30;69749;42.684;23.360;2023-05-17T14:01:45;18.60;59.78
80412;SHT30;69749;42.684;23.360;2023-05-17T14:04:11;18.56;59.88
80412;SHT30;69749;42.684;23.360;2023-05-17T14:06:37;18.45;60.00
80412;SHT30;69749;42.684;23.360;2023-05-17T14:09:03;18.35;60.69
80412;SHT30;69749;42.684;23.360;2023-05-17T14:11:28;18.43;60.78
80412;SHT30;69749;42.684;23.360;2023-05-17T14:13:54;18.39;60.97
80412;SHT30;69749;42.684;23.360;2023-05-17T14:16:19;18.29;61.36
80412;SHT30;69749;42.684;23.360;2023-05-17T14:18:46;18.39;61.44
80412;SHT30;69749;42.684;23.360;2023-05-17T14:21:12;18.45;61.40
80412;SHT30;69749;42.684;23.360;2023-05-17T14:23:37;18.46;61.41
80412;SHT30;69749;42.684;23.360;2023-05-17T14:26:03;18.45;61.76
80412;SHT30;69749;42.684;23.360;2023-05-17T14:28:32;18.46;61.80
80412;SHT30;69749;42.684;23.360;2023-05-17T14:30:57;18.61;61.60
80412;SHT30;69749;42.684;23.360;2023-05-17T14:33:23;18.53;61.82
80412;SHT30;69749;42.684;23.360;2023-05-17T14:35:49;18.38;61.39
80412;SHT30;69749;42.684;23.360;2023-05-17T14:38:15;18.15;62.54
80412;SHT30;69749;42.684;23.360;2023-05-17T14:40:40;18.22;62.33
80412;SHT30;69749;42.684;23.360;2023-05-17T14:43:05;18.36;62.11
80412;SHT30;69749;42.684;23.360;2023-05-17T14:45:31;18.40;62.09
80412;SHT30;69749;42.684;23.360;2023-05-17T14:47:56;18.08;62.87
80412;SHT30;69749;42.684;23.360;2023-05-17T14:50:22;18.19;62.87
80412;SHT30;69749;42.684;23.360;2023-05-17T14:52:47;18.32;62.46
80412;SHT30;69749;42.684;23.360;2023-05-17T14:55:13;18.29;62.79
80412;SHT30;69749;42.684;23.360;2023-05-17T14:57:41;18.15;63.57
80412;SHT30;69749;42.684;23.360;2023-05-17T15:00:07;18.18;63.91
80412;SHT30;69749;42.684;23.360;2023-05-17T15:02:37;18.05;64.55
80412;SHT30;69749;42.684;23.360;2023-05-17T15:05:02;18.02;65.42
80412;SHT30;69749;42.684;23.360;2023-05-17T15:07:28;17.94;64.48
80412;SHT30;69749;42.684;23.360;2023-05-17T15:09:53;17.77;66.94
80412;SHT30;69749;42.684;23.360;2023-05-17T15:12:19;17.88;68.33
80412;SHT30;69749;42.684;23.360;2023-05-17T15:14:44;17.99;67.79
80412;SHT30;69749;42.684;23.360;2023-05-17T15:17:11;18.04;67.82
80412;SHT30;69749;42.684;23.360;2023-05-17T15:19:37;18.12;68.93
80412;SHT30;69749;42.684;23.360;2023-05-17T15:22:03;18.12;70.43
80412;SHT30;69749;42.684;23.360;2023-05-17T15:24:28;18.12;71.37
80412;SHT30;69749;42.684;23.360;2023-05-17T15:26:54;18.10;72.03
80412;SHT30;69749;42.684;23.360;2023-05-17T15:29:20;18.05;72.11
80412;SHT30;69749;42.684;23.360;2023-05-17T15:31:45;18.04;72.90
80412;SHT30;69749;42.684;23.360;2023-05-17T15:34:11;18.02;72.55
80412;SHT30;69749;42.684;23.360;2023-05-17T15:36:36;18.02;72.42
80412;SHT30;69749;42.684;23.360;2023-05-17T15:39:02;17.97;72.83
80412;SHT30;69749;42.684;23.360;2023-05-17T15:41:30;17.77;73.37
80412;SHT30;69749;42.684;23.360;2023-05-17T15:43:55;17.33;75.20
80412;SHT30;69749;42.684;23.360;2023-05-17T15:46:21;17.29;75.19
80412;SHT30;69749;42.684;23.360;2023-05-17T15:48:47;17.18;75.98
80412;SHT30;69749;42.684;23.360;2023-05-17T15:51:13;17.20;76.11
80412;SHT30;69749;42.684;23.360;2023-05-17T15:53:38;17.20;75.27